sensor_id;sensor_type;location;lat;lon;timestamp;P1;durP1;ratioP1;P2;durP2;ratioP2
59524;SDS011;45346;51.728;5.732;2022-07-06T00:00:40;10.00;;;4.30;;
59524;SDS011;45346;51.728;5.732;2022-07-06T00:03:06;7.23;;;4.10;;
59524;SDS011;45346;51.728;5.732;2022-07-06T00:05:31;8.90;;;4.33;;
59524;SDS011;45346;51.728;5.732;2022-07-06T00:07:56;9.93;;;4.25;;
59524;SDS011;45346;51.728;5.732;2022-07-06T00:10:21;7.40;;;4.20;;
59524;SDS011;45346;51.728;5.732;2022-07-06T00:12:46;13.13;;;4.45;;
59524;SDS011;45346;51.728;5.732;2022-07-06T00:15:11;8.60;;;4.40;;
59524;SDS011;45346;51.728;5.732;2022-07-06T00:17:36;10.23;;;4.53;;
59524;SDS011;45346;51.728;5.732;2022-07-06T00:20:02;8.57;;;4.47;;
59524;SDS011;45346;51.728;5.732;2022-07-06T00:22:27;12.07;;;4.70;;
59524;SDS011;45346;51.728;5.732;2022-07-06T00:24:52;16.52;;;4.97;;
59524;SDS011;45346;51.728;5.732;2022-07-06T00:27:17;13.43;;;5.05;;
59524;SDS011;45346;51.728;5.732;2022-07-06T00:29:42;10.05;;;5.00;;
59524;SDS011;45346;51.728;5.732;2022-07-06T00:32:09;11.63;;;5.20;;
59524;SDS011;45346;51.728;5.732;2022-07-06T00:34:35;12.60;;;5.63;;
59524;SDS011;45346;51.728;5.732;2022-07-06T00:37:00;14.43;;;4.97;;
59524;SDS011;45346;51.728;5.732;2022-07-06T00:39:25;11.70;;;5.33;;
59524;SDS011;45346;51.728;5.732;2022-07-06T00:41:54;10.05;;;4.95;;
59524;SDS011;45346;51.728;5.732;2022-07-06T00:44:19;22.90;;;5.53;;
59524;SDS011;45346;51.728;5.732;2022-07-06T00:46:44;13.40;;;5.15;;
59524;SDS011;45346;51.728;5.732;2022-07-06T00:49:09;8.95;;;4.80;;
59524;SDS011;45346;51.728;5.732;2022-07-06T00:51:54;12.07;;;5.38;;
59524;SDS011;45346;51.728;5.732;2022-07-06T00:54:19;13.38;;;5.20;;
59524;SDS011;45346;51.728;5.732;2022-07-06T00:56:45;12.77;;;6.15;;
59524;SDS011;45346;51.728;5.732;2022-07-06T00:59:10;13.23;;;5.78;;
59524;SDS011;45346;51.728;5.732;2022-07-06T01:01:35;12.90;;;6.38;;
59524;SDS011;45346;51.728;5.732;2022-07-06T01:04:01;16.30;;;6.07;;
59524;SDS011;45346;51.728;5.732;2022-07-06T01:06:26;12.50;;;6.22;;
59524;SDS011;45346;51.728;5.732;2022-07-06T01:08:51;16.17;;;5.83;;
59524;SDS011;45346;51.728;5.732;2022-07-06T01:11:17;13.85;;;7.03;;
59524;SDS011;45346;51.728;5.732;2022-07-06T01:13:43;10.80;;;5.53;;
59524;SDS011;45346;51.728;5.732;2022-07-06T01:16:08;16.10;;;6.40;;
59524;SDS011;45346;51.728;5.732;2022-07-06T01:18:33;12.43;;;6.18;;
59524;SDS011;45346;51.728;5.732;2022-07-06T01:21:31;16.83;;;5.90;;
59524;SDS011;45346;51.728;5.732;2022-07-06T01:23:50;17.65;;;6.43;;
59524;SDS011;45346;51.728;5.732;2022-07-06T01:26:16;20.67;;;5.95;;
59524;SDS011;45346;51.728;5.732;2022-07-06T01:28:48;15.93;;;6.63;;
59524;SDS011;45346;51.728;5.732;2022-07-06T01:31:15;14.82;;;6.53;;
59524;SDS011;45346;51.728;5.732;2022-07-06T01:33:40;11.43;;;5.68;;
59524;SDS011;45346;51.728;5.732;2022-07-06T01:36:05;12.93;;;6.47;;
59524;SDS011;45346;51.728;5.732;2022-07-06T01:38:30;11.73;;;6.17;;
59524;SDS011;45346;51.728;5.732;2022-07-06T01:40:56;11.07;;;5.67;;
59524;SDS011;45346;51.728;5.732;2022-07-06T01:43:21;16.40;;;5.97;;
59524;SDS011;45346;51.728;5.732;2022-07-06T01:45:46;12.10;;;5.50;;
59524;SDS011;45346;51.728;5.732;2022-07-06T01:48:11;13.60;;;6.28;;
59524;SDS011;45346;51.728;5.732;2022-07-06T01:50:36;15.23;;;6.43;;
59524;SDS011;45346;51.728;5.732;2022-07-06T01:53:01;11.75;;;5.75;;
59524;SDS011;45346;51.728;5.732;2022-07-06T01:55:27;14.60;;;6.15;;
59524;SDS011;45346;51.728;5.732;2022-07-06T01:57:52;15.95;;;6.55;;
59524;SDS011;45346;51.728;5.732;2022-07-06T02:00:17;15.65;;;6.07;;
59524;SDS011;45346;51.728;5.732;2022-07-06T02:02:42;10.87;;;5.50;;
59524;SDS011;45346;51.728;5.732;2022-07-06T02:05:07;12.48;;;5.75;;
59524;SDS011;45346;51.728;5.732;2022-07-06T02:07:33;10.40;;;5.38;;
59524;SDS011;45346;51.728;5.732;2022-07-06T02:09:58;13.57;;;7.25;;
59524;SDS011;45346;51.728;5.732;2022-07-06T02:12:23;11.80;;;5.78;;
59524;SDS011;45346;51.728;5.732;2022-07-06T02:14:48;13.83;;;6.57;;
59524;SDS011;45346;51.728;5.732;2022-07-06T02:17:13;13.23;;;5.93;;
59524;SDS011;45346;51.728;5.732;2022-07-06T02:19:38;13.25;;;5.82;;
59524;SDS011;45346;51.728;5.732;2022-07-06T02:22:04;10.40;;;5.13;;
59524;SDS011;45346;51.728;5.732;2022-07-06T02:24:29;11.53;;;5.43;;
59524;SDS011;45346;51.728;5.732;2022-07-06T02:26:54;12.82;;;5.50;;
59524;SDS011;45346;51.728;5.732;2022-07-06T02:29:19;9.70;;;5.40;;
59524;SDS011;45346;51.728;5.732;2022-07-06T02:31:45;10.85;;;5.50;;
59524;SDS011;45346;51.728;5.732;2022-07-06T02:34:10;13.67;;;6.07;;
59524;SDS011;45346;51.728;5.732;2022-07-06T02:36:35;9.27;;;5.13;;
59524;SDS011;45346;51.728;5.732;2022-07-06T02:39:00;10.00;;;5.07;;
59524;SDS011;45346;51.728;5.732;2022-07-06T02:41:25;12.50;;;5.90;;
59524;SDS011;45346;51.728;5.732;2022-07-06T02:43:50;10.52;;;5.13;;
59524;SDS011;45346;51.728;5.732;2022-07-06T02:46:16;13.30;;;5.47;;
59524;SDS011;45346;51.728;5.732;2022-07-06T02:48:41;9.93;;;4.87;;
59524;SDS011;45346;51.728;5.732;2022-07-06T02:51:06;9.88;;;4.60;;
59524;SDS011;45346;51.728;5.732;2022-07-06T02:53:31;10.27;;;5.10;;
59524;SDS011;45346;51.728;5.732;2022-07-06T02:55:56;10.23;;;5.22;;
59524;SDS011;45346;51.728;5.732;2022-07-06T02:58:21;12.70;;;5.40;;
59524;SDS011;45346;51.728;5.732;2022-07-06T03:00:47;12.52;;;4.93;;
59524;SDS011;45346;51.728;5.732;2022-07-06T03:03:12;9.60;;;5.70;;
59524;SDS011;45346;51.728;5.732;2022-07-06T03:05:37;10.23;;;5.17;;
59524;SDS011;45346;51.728;5.732;2022-07-06T03:08:02;11.17;;;5.47;;
59524;SDS011;45346;51.728;5.732;2022-07-06T03:10:27;12.55;;;5.88;;
59524;SDS011;45346;51.728;5.732;2022-07-06T03:12:53;9.48;;;4.57;;
59524;SDS011;45346;51.728;5.732;2022-07-06T03:15:18;9.45;;;5.13;;
59524;SDS011;45346;51.728;5.732;2022-07-06T03:17:43;11.87;;;6.17;;
59524;SDS011;45346;51.728;5.732;2022-07-06T03:20:08;10.15;;;5.25;;
59524;SDS011;45346;51.728;5.732;2022-07-06T03:22:33;10.88;;;4.63;;
59524;SDS011;45346;51.728;5.732;2022-07-06T03:24:59;14.90;;;5.10;;
59524;SDS011;45346;51.728;5.732;2022-07-06T03:27:24;13.05;;;5.43;;
59524;SDS011;45346;51.728;5.732;2022-07-06T03:29:49;10.03;;;4.87;;
59524;SDS011;45346;51.728;5.732;2022-07-06T03:32:14;13.23;;;6.30;;
59524;SDS011;45346;51.728;5.732;2022-07-06T03:34:39;13.17;;;6.43;;
59524;SDS011;45346;51.728;5.732;2022-07-06T03:37:04;12.80;;;6.40;;
59524;SDS011;45346;51.728;5.732;2022-07-06T03:39:31;11.02;;;5.13;;
59524;SDS011;45346;51.728;5.732;2022-07-06T03:41:56;14.50;;;5.13;;
59524;SDS011;45346;51.728;5.732;2022-07-06T03:44:21;15.67;;;5.10;;
59524;SDS011;45346;51.728;5.732;2022-07-06T03:46:46;14.88;;;5.65;;
59524;SDS011;45346;51.728;5.732;2022-07-06T03:49:11;7.97;;;5.05;;
59524;SDS011;45346;51.728;5.732;2022-07-06T03:51:37;9.60;;;4.72;;
59524;SDS011;45346;51.728;5.732;2022-07-06T03:54:02;9.18;;;4.78;;
59524;SDS011;45346;51.728;5.732;2022-07-06T03:56:27;14.07;;;5.60;;
59524;SDS011;45346;51.728;5.732;2022-07-06T03:58:53;8.88;;;5.03;;
59524;SDS011;45346;51.728;5.732;2022-07-06T04:01:19;9.57;;;5.30;;
59524;SDS011;45346;51.728;5.732;2022-07-06T04:03:44;11.50;;;4.95;;
59524;SDS011;45346;51.728;5.732;2022-07-06T04:06:09;8.02;;;4.72;;
59524;SDS011;45346;51.728;5.732;2022-07-06T04:08:34;12.25;;;5.00;;
59524;SDS011;45346;51.728;5.732;2022-07-06T04:11:00;8.37;;;4.80;;
59524;SDS011;45346;51.728;5.732;2022-07-06T04:13:25;20.08;;;5.53;;
59524;SDS011;45346;51.728;5.732;2022-07-06T04:15:50;8.52;;;4.03;;
59524;SDS011;45346;51.728;5.732;2022-07-06T04:18:15;6.47;;;4.20;;
59524;SDS011;45346;51.728;5.732;2022-07-06T04:20:41;9.03;;;4.57;;
59524;SDS011;45346;51.728;5.732;2022-07-06T04:23:06;9.90;;;4.60;;
59524;SDS011;45346;51.728;5.732;2022-07-06T04:25:31;6.00;;;3.93;;
59524;SDS011;45346;51.728;5.732;2022-07-06T04:27:56;7.40;;;3.80;;
59524;SDS011;45346;51.728;5.732;2022-07-06T04:30:21;11.00;;;4.53;;
59524;SDS011;45346;51.728;5.732;2022-07-06T04:32:47;7.03;;;3.80;;
59524;SDS011;45346;51.728;5.732;2022-07-06T04:35:12;5.93;;;3.72;;
59524;SDS011;45346;51.728;5.732;2022-07-06T04:37:37;6.63;;;4.00;;
59524;SDS011;45346;51.728;5.732;2022-07-06T04:40:02;8.75;;;3.78;;
59524;SDS011;45346;51.728;5.732;2022-07-06T04:42:28;8.70;;;4.20;;
59524;SDS011;45346;51.728;5.732;2022-07-06T04:44:53;7.33;;;4.33;;
59524;SDS011;45346;51.728;5.732;2022-07-06T04:47:18;5.07;;;4.00;;
59524;SDS011;45346;51.728;5.732;2022-07-06T04:49:43;6.37;;;3.73;;
59524;SDS011;45346;51.728;5.732;2022-07-06T04:52:08;6.72;;;4.22;;
59524;SDS011;45346;51.728;5.732;2022-07-06T04:54:34;12.33;;;4.27;;
59524;SDS011;45346;51.728;5.732;2022-07-06T04:56:59;8.27;;;4.43;;
59524;SDS011;45346;51.728;5.732;2022-07-06T04:59:24;8.67;;;3.77;;
59524;SDS011;45346;51.728;5.732;2022-07-06T05:01:49;6.07;;;3.80;;
59524;SDS011;45346;51.728;5.732;2022-07-06T05:04:14;8.55;;;3.67;;
59524;SDS011;45346;51.728;5.732;2022-07-06T05:06:41;6.30;;;3.70;;
59524;SDS011;45346;51.728;5.732;2022-07-06T05:09:07;6.20;;;3.70;;
59524;SDS011;45346;51.728;5.732;2022-07-06T05:11:32;5.43;;;3.03;;
59524;SDS011;45346;51.728;5.732;2022-07-06T05:13:57;4.07;;;3.60;;
59524;SDS011;45346;51.728;5.732;2022-07-06T05:16:22;6.43;;;3.85;;
59524;SDS011;45346;51.728;5.732;2022-07-06T05:18:48;7.35;;;3.50;;
59524;SDS011;45346;51.728;5.732;2022-07-06T05:21:13;6.20;;;3.90;;
59524;SDS011;45346;51.728;5.732;2022-07-06T05:23:38;9.67;;;4.40;;
59524;SDS011;45346;51.728;5.732;2022-07-06T05:26:03;5.32;;;4.05;;
59524;SDS011;45346;51.728;5.732;2022-07-06T05:28:29;11.25;;;4.10;;
59524;SDS011;45346;51.728;5.732;2022-07-06T05:30:54;7.40;;;3.87;;
59524;SDS011;45346;51.728;5.732;2022-07-06T05:33:19;7.93;;;4.22;;
59524;SDS011;45346;51.728;5.732;2022-07-06T05:35:44;11.23;;;4.20;;
59524;SDS011;45346;51.728;5.732;2022-07-06T05:38:09;6.10;;;4.15;;
59524;SDS011;45346;51.728;5.732;2022-07-06T05:40:35;4.55;;;3.97;;
59524;SDS011;45346;51.728;5.732;2022-07-06T05:43:00;6.97;;;3.80;;
59524;SDS011;45346;51.728;5.732;2022-07-06T05:45:25;9.27;;;4.35;;
59524;SDS011;45346;51.728;5.732;2022-07-06T05:47:50;6.20;;;3.93;;
59524;SDS011;45346;51.728;5.732;2022-07-06T05:50:34;6.32;;;3.50;;
59524;SDS011;45346;51.728;5.732;2022-07-06T05:53:00;8.57;;;3.70;;
59524;SDS011;45346;51.728;5.732;2022-07-06T05:55:26;10.60;;;3.45;;
59524;SDS011;45346;51.728;5.732;2022-07-06T05:57:51;8.20;;;3.28;;
59524;SDS011;45346;51.728;5.732;2022-07-06T06:00:18;5.50;;;3.08;;
59524;SDS011;45346;51.728;5.732;2022-07-06T06:02:44;4.18;;;3.67;;
59524;SDS011;45346;51.728;5.732;2022-07-06T06:05:10;8.00;;;3.60;;
59524;SDS011;45346;51.728;5.732;2022-07-06T06:07:36;7.43;;;3.13;;
59524;SDS011;45346;51.728;5.732;2022-07-06T06:10:02;6.43;;;3.33;;
59524;SDS011;45346;51.728;5.732;2022-07-06T06:12:28;6.75;;;3.15;;
59524;SDS011;45346;51.728;5.732;2022-07-06T06:14:53;5.37;;;3.27;;
59524;SDS011;45346;51.728;5.732;2022-07-06T06:17:18;5.87;;;2.73;;
59524;SDS011;45346;51.728;5.732;2022-07-06T06:19:44;3.35;;;3.03;;
59524;SDS011;45346;51.728;5.732;2022-07-06T06:22:09;5.75;;;3.42;;
59524;SDS011;45346;51.728;5.732;2022-07-06T06:24:34;14.48;;;3.70;;
59524;SDS011;45346;51.728;5.732;2022-07-06T06:26:59;7.23;;;3.30;;
59524;SDS011;45346;51.728;5.732;2022-07-06T06:29:24;5.87;;;3.03;;
59524;SDS011;45346;51.728;5.732;2022-07-06T06:31:50;5.50;;;2.90;;
59524;SDS011;45346;51.728;5.732;2022-07-06T06:34:15;4.88;;;2.88;;
59524;SDS011;45346;51.728;5.732;2022-07-06T06:36:40;3.43;;;2.10;;
59524;SDS011;45346;51.728;5.732;2022-07-06T06:39:05;7.93;;;2.00;;
59524;SDS011;45346;51.728;5.732;2022-07-06T06:41:30;3.73;;;1.60;;
59524;SDS011;45346;51.728;5.732;2022-07-06T06:43:55;1.80;;;1.60;;
59524;SDS011;45346;51.728;5.732;2022-07-06T06:46:21;4.50;;;1.53;;
59524;SDS011;45346;51.728;5.732;2022-07-06T06:48:46;6.03;;;1.43;;
59524;SDS011;45346;51.728;5.732;2022-07-06T06:51:11;4.07;;;1.57;;
59524;SDS011;45346;51.728;5.732;2022-07-06T06:53:36;4.93;;;1.85;;
59524;SDS011;45346;51.728;5.732;2022-07-06T06:56:01;7.32;;;2.45;;
59524;SDS011;45346;51.728;5.732;2022-07-06T06:58:26;3.38;;;1.90;;
59524;SDS011;45346;51.728;5.732;2022-07-06T07:00:52;1.70;;;1.60;;
59524;SDS011;45346;51.728;5.732;2022-07-06T07:03:17;4.80;;;1.80;;
59524;SDS011;45346;51.728;5.732;2022-07-06T07:05:42;4.07;;;1.90;;
59524;SDS011;45346;51.728;5.732;2022-07-06T07:08:07;4.67;;;2.23;;
59524;SDS011;45346;51.728;5.732;2022-07-06T07:10:33;6.00;;;2.40;;
59524;SDS011;45346;51.728;5.732;2022-07-06T07:12:58;4.00;;;1.80;;
59524;SDS011;45346;51.728;5.732;2022-07-06T07:15:23;6.07;;;1.65;;
59524;SDS011;45346;51.728;5.732;2022-07-06T07:17:48;3.33;;;1.83;;
59524;SDS011;45346;51.728;5.732;2022-07-06T07:20:13;5.90;;;1.70;;
59524;SDS011;45346;51.728;5.732;2022-07-06T07:22:38;5.88;;;1.60;;
59524;SDS011;45346;51.728;5.732;2022-07-06T07:25:04;3.37;;;1.60;;
59524;SDS011;45346;51.728;5.732;2022-07-06T07:27:30;1.80;;;1.50;;
59524;SDS011;45346;51.728;5.732;2022-07-06T07:29:55;4.03;;;1.40;;
59524;SDS011;45346;51.728;5.732;2022-07-06T07:32:20;4.37;;;1.20;;
59524;SDS011;45346;51.728;5.732;2022-07-06T07:34:45;1.20;;;0.80;;
59524;SDS011;45346;51.728;5.732;2022-07-06T07:37:11;2.33;;;0.73;;
59524;SDS011;45346;51.728;5.732;2022-07-06T07:39:36;2.33;;;0.83;;
59524;SDS011;45346;51.728;5.732;2022-07-06T07:42:01;4.25;;;1.33;;
59524;SDS011;45346;51.728;5.732;2022-07-06T07:44:26;5.03;;;1.30;;
59524;SDS011;45346;51.728;5.732;2022-07-06T07:46:52;3.88;;;1.20;;
59524;SDS011;45346;51.728;5.732;2022-07-06T07:49:18;3.53;;;1.40;;
59524;SDS011;45346;51.728;5.732;2022-07-06T07:51:43;7.80;;;1.50;;
59524;SDS011;45346;51.728;5.732;2022-07-06T07:54:09;2.40;;;1.07;;
59524;SDS011;45346;51.728;5.732;2022-07-06T07:56:34;6.43;;;1.33;;
59524;SDS011;45346;51.728;5.732;2022-07-06T07:58:59;2.53;;;1.10;;
59524;SDS011;45346;51.728;5.732;2022-07-06T08:01:24;2.43;;;0.80;;
59524;SDS011;45346;51.728;5.732;2022-07-06T08:03:49;6.17;;;1.43;;
59524;SDS011;45346;51.728;5.732;2022-07-06T08:06:14;2.63;;;1.00;;
59524;SDS011;45346;51.728;5.732;2022-07-06T08:08:40;3.38;;;1.20;;
59524;SDS011;45346;51.728;5.732;2022-07-06T08:11:05;2.63;;;1.20;;
59524;SDS011;45346;51.728;5.732;2022-07-06T08:13:30;7.03;;;1.35;;
59524;SDS011;45346;51.728;5.732;2022-07-06T08:15:55;4.03;;;1.10;;
59524;SDS011;45346;51.728;5.732;2022-07-06T08:18:20;3.50;;;1.20;;
59524;SDS011;45346;51.728;5.732;2022-07-06T08:20:45;4.33;;;1.03;;
59524;SDS011;45346;51.728;5.732;2022-07-06T08:23:11;8.03;;;1.83;;
59524;SDS011;45346;51.728;5.732;2022-07-06T08:25:36;7.03;;;1.30;;
59524;SDS011;45346;51.728;5.732;2022-07-06T08:28:01;2.60;;;1.10;;
59524;SDS011;45346;51.728;5.732;2022-07-06T08:30:26;3.87;;;1.17;;
59524;SDS011;45346;51.728;5.732;2022-07-06T08:32:52;7.43;;;1.10;;
59524;SDS011;45346;51.728;5.732;2022-07-06T08:35:17;4.65;;;1.60;;
59524;SDS011;45346;51.728;5.732;2022-07-06T08:37:42;2.73;;;0.80;;
59524;SDS011;45346;51.728;5.732;2022-07-06T08:40:09;1.55;;;0.80;;
59524;SDS011;45346;51.728;5.732;2022-07-06T08:42:34;2.25;;;0.80;;
59524;SDS011;45346;51.728;5.732;2022-07-06T08:45:01;6.85;;;1.00;;
59524;SDS011;45346;51.728;5.732;2022-07-06T08:47:27;5.93;;;1.10;;
59524;SDS011;45346;51.728;5.732;2022-07-06T08:49:52;1.98;;;0.85;;
59524;SDS011;45346;51.728;5.732;2022-07-06T08:52:18;2.10;;;0.82;;
59524;SDS011;45346;51.728;5.732;2022-07-06T08:54:43;1.20;;;1.10;;
59524;SDS011;45346;51.728;5.732;2022-07-06T08:57:08;0.97;;;0.93;;
59524;SDS011;45346;51.728;5.732;2022-07-06T08:59:33;3.53;;;0.90;;
59524;SDS011;45346;51.728;5.732;2022-07-06T09:01:59;1.55;;;0.65;;
59524;SDS011;45346;51.728;5.732;2022-07-06T09:04:25;2.83;;;0.70;;
59524;SDS011;45346;51.728;5.732;2022-07-06T09:06:50;2.08;;;0.50;;
59524;SDS011;45346;51.728;5.732;2022-07-06T09:09:18;4.13;;;0.90;;
59524;SDS011;45346;51.728;5.732;2022-07-06T09:11:44;4.70;;;1.10;;
59524;SDS011;45346;51.728;5.732;2022-07-06T09:14:09;3.72;;;0.80;;
59524;SDS011;45346;51.728;5.732;2022-07-06T09:16:34;1.50;;;0.60;;
59524;SDS011;45346;51.728;5.732;2022-07-06T09:19:00;5.13;;;0.70;;
59524;SDS011;45346;51.728;5.732;2022-07-06T09:21:29;0.80;;;0.50;;
59524;SDS011;45346;51.728;5.732;2022-07-06T09:23:57;1.23;;;0.43;;
59524;SDS011;45346;51.728;5.732;2022-07-06T09:26:23;0.93;;;0.52;;
59524;SDS011;45346;51.728;5.732;2022-07-06T09:28:48;2.38;;;0.60;;
59524;SDS011;45346;51.728;5.732;2022-07-06T09:31:14;2.37;;;0.90;;
59524;SDS011;45346;51.728;5.732;2022-07-06T09:33:39;0.82;;;0.60;;
59524;SDS011;45346;51.728;5.732;2022-07-06T09:36:17;2.92;;;0.75;;
59524;SDS011;45346;51.728;5.732;2022-07-06T09:38:51;3.03;;;0.82;;
59524;SDS011;45346;51.728;5.732;2022-07-06T09:41:29;3.40;;;0.70;;
59524;SDS011;45346;51.728;5.732;2022-07-06T09:46:36;5.18;;;0.98;;
59524;SDS011;45346;51.728;5.732;2022-07-06T09:49:02;2.35;;;1.08;;
59524;SDS011;45346;51.728;5.732;2022-07-06T09:51:30;5.93;;;1.07;;
59524;SDS011;45346;51.728;5.732;2022-07-06T09:53:57;3.22;;;0.77;;
59524;SDS011;45346;51.728;5.732;2022-07-06T09:56:24;2.33;;;1.00;;
59524;SDS011;45346;51.728;5.732;2022-07-06T09:59:00;2.67;;;0.80;;
59524;SDS011;45346;51.728;5.732;2022-07-06T10:01:25;4.30;;;0.80;;
59524;SDS011;45346;51.728;5.732;2022-07-06T10:03:51;4.68;;;0.80;;
59524;SDS011;45346;51.728;5.732;2022-07-06T10:06:17;2.83;;;1.10;;
59524;SDS011;45346;51.728;5.732;2022-07-06T10:08:42;4.03;;;0.77;;
59524;SDS011;45346;51.728;5.732;2022-07-06T10:11:08;2.58;;;1.20;;
59524;SDS011;45346;51.728;5.732;2022-07-06T10:13:38;1.55;;;0.68;;
59524;SDS011;45346;51.728;5.732;2022-07-06T10:16:03;4.38;;;1.10;;
59524;SDS011;45346;51.728;5.732;2022-07-06T10:18:29;4.25;;;1.02;;
59524;SDS011;45346;51.728;5.732;2022-07-06T10:20:54;3.55;;;0.82;;
59524;SDS011;45346;51.728;5.732;2022-07-06T10:23:20;5.10;;;1.63;;
59524;SDS011;45346;51.728;5.732;2022-07-06T10:25:46;1.83;;;0.82;;
59524;SDS011;45346;51.728;5.732;2022-07-06T10:28:12;6.55;;;1.02;;
59524;SDS011;45346;51.728;5.732;2022-07-06T10:30:39;4.05;;;1.58;;
59524;SDS011;45346;51.728;5.732;2022-07-06T10:33:05;4.95;;;1.20;;
59524;SDS011;45346;51.728;5.732;2022-07-06T10:35:30;2.75;;;1.00;;
59524;SDS011;45346;51.728;5.732;2022-07-06T10:38:05;3.13;;;1.10;;
59524;SDS011;45346;51.728;5.732;2022-07-06T10:40:31;2.25;;;1.00;;
59524;SDS011;45346;51.728;5.732;2022-07-06T10:43:15;3.28;;;1.10;;
59524;SDS011;45346;51.728;5.732;2022-07-06T10:50:40;4.03;;;1.00;;
59524;SDS011;45346;51.728;5.732;2022-07-06T10:53:12;2.17;;;1.02;;
59524;SDS011;45346;51.728;5.732;2022-07-06T10:55:39;2.95;;;1.10;;
59524;SDS011;45346;51.728;5.732;2022-07-06T10:58:05;3.03;;;1.13;;
59524;SDS011;45346;51.728;5.732;2022-07-06T11:00:49;3.42;;;1.23;;
59524;SDS011;45346;51.728;5.732;2022-07-06T11:03:31;3.80;;;1.00;;
59524;SDS011;45346;51.728;5.732;2022-07-06T11:06:00;2.05;;;0.90;;
59524;SDS011;45346;51.728;5.732;2022-07-06T11:08:45;2.47;;;1.27;;
59524;SDS011;45346;51.728;5.732;2022-07-06T11:11:11;3.53;;;0.88;;
59524;SDS011;45346;51.728;5.732;2022-07-06T11:13:50;2.95;;;1.20;;
59524;SDS011;45346;51.728;5.732;2022-07-06T11:16:16;3.80;;;1.10;;
59524;SDS011;45346;51.728;5.732;2022-07-06T11:18:45;1.35;;;1.00;;
59524;SDS011;45346;51.728;5.732;2022-07-06T11:23:42;3.25;;;1.08;;
59524;SDS011;45346;51.728;5.732;2022-07-06T11:26:07;3.03;;;1.50;;
59524;SDS011;45346;51.728;5.732;2022-07-06T11:28:32;3.30;;;1.15;;
59524;SDS011;45346;51.728;5.732;2022-07-06T11:30:59;7.32;;;1.15;;
59524;SDS011;45346;51.728;5.732;2022-07-06T11:33:28;3.15;;;1.02;;
59524;SDS011;45346;51.728;5.732;2022-07-06T11:35:58;6.53;;;1.10;;
59524;SDS011;45346;51.728;5.732;2022-07-06T11:38:35;3.70;;;0.95;;
59524;SDS011;45346;51.728;5.732;2022-07-06T11:41:01;6.53;;;1.37;;
59524;SDS011;45346;51.728;5.732;2022-07-06T11:43:26;2.80;;;0.93;;
59524;SDS011;45346;51.728;5.732;2022-07-06T11:45:51;3.50;;;0.97;;
59524;SDS011;45346;51.728;5.732;2022-07-06T11:48:16;1.05;;;0.90;;
59524;SDS011;45346;51.728;5.732;2022-07-06T11:50:41;4.17;;;1.00;;
59524;SDS011;45346;51.728;5.732;2022-07-06T11:53:07;6.57;;;1.17;;
59524;SDS011;45346;51.728;5.732;2022-07-06T11:55:32;1.17;;;0.87;;
59524;SDS011;45346;51.728;5.732;2022-07-06T11:57:57;2.50;;;0.80;;
59524;SDS011;45346;51.728;5.732;2022-07-06T12:00:24;2.42;;;1.20;;
59524;SDS011;45346;51.728;5.732;2022-07-06T12:02:59;3.87;;;1.03;;
59524;SDS011;45346;51.728;5.732;2022-07-06T12:05:28;4.28;;;1.10;;
59524;SDS011;45346;51.728;5.732;2022-07-06T12:08:04;4.13;;;1.40;;
59524;SDS011;45346;51.728;5.732;2022-07-06T12:10:33;4.45;;;0.90;;
59524;SDS011;45346;51.728;5.732;2022-07-06T12:13:04;2.58;;;0.98;;
59524;SDS011;45346;51.728;5.732;2022-07-06T12:15:29;5.07;;;1.00;;
59524;SDS011;45346;51.728;5.732;2022-07-06T12:17:54;2.05;;;0.95;;
59524;SDS011;45346;51.728;5.732;2022-07-06T12:20:19;1.20;;;0.83;;
59524;SDS011;45346;51.728;5.732;2022-07-06T12:22:45;2.92;;;0.98;;
59524;SDS011;45346;51.728;5.732;2022-07-06T12:25:10;1.53;;;1.00;;
59524;SDS011;45346;51.728;5.732;2022-07-06T12:27:35;3.83;;;1.30;;
59524;SDS011;45346;51.728;5.732;2022-07-06T12:30:10;1.95;;;0.93;;
59524;SDS011;45346;51.728;5.732;2022-07-06T12:32:36;3.50;;;1.20;;
59524;SDS011;45346;51.728;5.732;2022-07-06T12:35:03;3.35;;;0.90;;
59524;SDS011;45346;51.728;5.732;2022-07-06T12:37:28;4.07;;;1.20;;
59524;SDS011;45346;51.728;5.732;2022-07-06T12:39:53;5.68;;;1.40;;
59524;SDS011;45346;51.728;5.732;2022-07-06T12:42:18;7.97;;;1.20;;
59524;SDS011;45346;51.728;5.732;2022-07-06T12:44:50;4.07;;;1.10;;
59524;SDS011;45346;51.728;5.732;2022-07-06T12:47:19;3.60;;;1.10;;
59524;SDS011;45346;51.728;5.732;2022-07-06T12:49:46;2.35;;;1.00;;
59524;SDS011;45346;51.728;5.732;2022-07-06T12:57:17;3.08;;;1.42;;
59524;SDS011;45346;51.728;5.732;2022-07-06T12:59:44;3.95;;;1.23;;
59524;SDS011;45346;51.728;5.732;2022-07-06T13:02:19;3.47;;;1.15;;
59524;SDS011;45346;51.728;5.732;2022-07-06T13:04:54;8.88;;;2.00;;
59524;SDS011;45346;51.728;5.732;2022-07-06T13:07:19;2.42;;;1.30;;
59524;SDS011;45346;51.728;5.732;2022-07-06T13:09:44;4.60;;;1.30;;
59524;SDS011;45346;51.728;5.732;2022-07-06T13:12:10;3.77;;;1.07;;
59524;SDS011;45346;51.728;5.732;2022-07-06T13:14:35;3.00;;;1.30;;
59524;SDS011;45346;51.728;5.732;2022-07-06T13:17:00;3.08;;;1.10;;
59524;SDS011;45346;51.728;5.732;2022-07-06T13:19:26;4.00;;;1.23;;
59524;SDS011;45346;51.728;5.732;2022-07-06T13:21:51;6.80;;;1.33;;
59524;SDS011;45346;51.728;5.732;2022-07-06T13:24:16;5.80;;;1.40;;
59524;SDS011;45346;51.728;5.732;2022-07-06T13:26:41;3.93;;;1.20;;
59524;SDS011;45346;51.728;5.732;2022-07-06T13:29:06;2.28;;;1.02;;
59524;SDS011;45346;51.728;5.732;2022-07-06T13:31:32;3.80;;;1.55;;
59524;SDS011;45346;51.728;5.732;2022-07-06T13:33:57;2.87;;;1.37;;
59524;SDS011;45346;51.728;5.732;2022-07-06T13:36:22;5.05;;;1.40;;
59524;SDS011;45346;51.728;5.732;2022-07-06T13:38:47;4.95;;;1.30;;
59524;SDS011;45346;51.728;5.732;2022-07-06T13:41:13;5.47;;;1.92;;
59524;SDS011;45346;51.728;5.732;2022-07-06T13:43:38;3.97;;;1.83;;
59524;SDS011;45346;51.728;5.732;2022-07-06T13:46:03;5.20;;;1.57;;
59524;SDS011;45346;51.728;5.732;2022-07-06T13:48:29;5.32;;;2.03;;
59524;SDS011;45346;51.728;5.732;2022-07-06T13:50:54;3.22;;;1.25;;
59524;SDS011;45346;51.728;5.732;2022-07-06T13:53:19;7.10;;;1.67;;
59524;SDS011;45346;51.728;5.732;2022-07-06T13:55:44;6.57;;;1.98;;
59524;SDS011;45346;51.728;5.732;2022-07-06T13:58:10;2.80;;;1.50;;
59524;SDS011;45346;51.728;5.732;2022-07-06T14:00:35;4.97;;;1.60;;
59524;SDS011;45346;51.728;5.732;2022-07-06T14:03:00;4.27;;;1.40;;
59524;SDS011;45346;51.728;5.732;2022-07-06T14:05:25;3.73;;;1.30;;
59524;SDS011;45346;51.728;5.732;2022-07-06T14:07:52;3.67;;;1.10;;
59524;SDS011;45346;51.728;5.732;2022-07-06T14:10:17;3.77;;;1.43;;
59524;SDS011;45346;51.728;5.732;2022-07-06T14:12:43;2.55;;;1.40;;
59524;SDS011;45346;51.728;5.732;2022-07-06T14:15:08;2.70;;;1.38;;
59524;SDS011;45346;51.728;5.732;2022-07-06T14:17:33;5.32;;;1.48;;
59524;SDS011;45346;51.728;5.732;2022-07-06T14:19:58;7.10;;;1.90;;
59524;SDS011;45346;51.728;5.732;2022-07-06T14:22:23;6.80;;;1.40;;
59524;SDS011;45346;51.728;5.732;2022-07-06T14:24:49;3.20;;;1.90;;
59524;SDS011;45346;51.728;5.732;2022-07-06T14:27:14;3.37;;;1.83;;
59524;SDS011;45346;51.728;5.732;2022-07-06T14:29:39;2.25;;;1.50;;
59524;SDS011;45346;51.728;5.732;2022-07-06T14:32:04;3.80;;;1.52;;
59524;SDS011;45346;51.728;5.732;2022-07-06T14:34:29;3.40;;;1.90;;
59524;SDS011;45346;51.728;5.732;2022-07-06T14:36:54;3.75;;;1.85;;
59524;SDS011;45346;51.728;5.732;2022-07-06T14:39:20;7.22;;;1.85;;
59524;SDS011;45346;51.728;5.732;2022-07-06T14:41:45;3.53;;;1.87;;
59524;SDS011;45346;51.728;5.732;2022-07-06T14:44:10;4.25;;;2.25;;
59524;SDS011;45346;51.728;5.732;2022-07-06T14:46:35;7.20;;;2.13;;
59524;SDS011;45346;51.728;5.732;2022-07-06T14:49:00;13.13;;;2.17;;
59524;SDS011;45346;51.728;5.732;2022-07-06T14:51:26;8.57;;;2.30;;
59524;SDS011;45346;51.728;5.732;2022-07-06T14:53:51;9.70;;;2.22;;